sensor_id;sensor_type;location;lat;lon;timestamp;temperature;humidity
69776;DHT22;57049;51.450;-2.516;2023-06-14T00:01:02;18.13;62.96
69776;DHT22;57049;51.450;-2.516;2023-06-14T00:03:31;18.07;63.01
69776;DHT22;57049;51.450;-2.516;2023-06-14T00:05:58;18.01;63.39
69776;DHT22;57049;51.450;-2.516;2023-06-14T00:08:23;18.00;63.36
69776;DHT22;57049;51.450;-2.516;2023-06-14T00:10:50;17.93;63.55
69776;DHT22;57049;51.450;-2.516;2023-06-14T00:13:16;17.90;63.65
69776;DHT22;57049;51.450;-2.516;2023-06-14T00:15:41;17.84;63.91
69776;DHT22;57049;51.450;-2.516;2023-06-14T00:18:08;17.81;64.08
69776;DHT22;57049;51.450;-2.516;2023-06-14T00:20:35;17.74;64.42
69776;DHT22;57049;51.450;-2.516;2023-06-14T00:23:01;17.67;64.73
69776;DHT22;57049;51.450;-2.516;2023-06-14T00:25:27;17.62;64.72
69776;DHT22;57049;51.450;-2.516;2023-06-14T00:27:53;17.62;64.74
69776;DHT22;57049;51.450;-2.516;2023-06-14T00:30:19;17.54;65.01
69776;DHT22;57049;51.450;-2.516;2023-06-14T00:32:45;17.52;65.05
69776;DHT22;57049;51.450;-2.516;2023-06-14T00:35:11;17.45;65.36
69776;DHT22;57049;51.450;-2.516;2023-06-14T00:37:37;17.40;65.63
69776;DHT22;57049;51.450;-2.516;2023-06-14T00:40:03;17.38;65.59
69776;DHT22;57049;51.450;-2.516;2023-06-14T00:42:29;17.36;65.67
69776;DHT22;57049;51.450;-2.516;2023-06-14T00:44:55;17.33;65.54
69776;DHT22;57049;51.450;-2.516;2023-06-14T00:47:21;17.33;65.46
69776;DHT22;57049;51.450;-2.516;2023-06-14T00:49:47;17.32;65.47
69776;DHT22;57049;51.450;-2.516;2023-06-14T00:52:14;17.25;65.44
69776;DHT22;57049;51.450;-2.516;2023-06-14T00:54:41;17.23;65.55
69776;DHT22;57049;51.450;-2.516;2023-06-14T00:57:07;17.19;65.56
69776;DHT22;57049;51.450;-2.516;2023-06-14T00:59:35;17.15;65.17
69776;DHT22;57049;51.450;-2.516;2023-06-14T01:02:04;17.16;65.06
69776;DHT22;57049;51.450;-2.516;2023-06-14T01:04:29;17.14;65.03
69776;DHT22;57049;51.450;-2.516;2023-06-14T01:10:03;17.08;64.74
69776;DHT22;57049;51.450;-2.516;2023-06-14T01:12:39;17.07;64.84
69776;DHT22;57049;51.450;-2.516;2023-06-14T01:15:10;16.98;64.80
69776;DHT22;57049;51.450;-2.516;2023-06-14T01:17:37;16.95;64.86
69776;DHT22;57049;51.450;-2.516;2023-06-14T01:20:09;16.87;65.44
69776;DHT22;57049;51.450;-2.516;2023-06-14T01:22:43;16.77;65.55
69776;DHT22;57049;51.450;-2.516;2023-06-14T01:25:09;16.71;65.45
69776;DHT22;57049;51.450;-2.516;2023-06-14T01:27:34;16.69;65.27
69776;DHT22;57049;51.450;-2.516;2023-06-14T01:30:03;16.63;65.31
69776;DHT22;57049;51.450;-2.516;2023-06-14T01:32:30;16.58;65.48
69776;DHT22;57049;51.450;-2.516;2023-06-14T01:34:56;16.54;65.87
69776;DHT22;57049;51.450;-2.516;2023-06-14T01:37:22;16.46;65.56
69776;DHT22;57049;51.450;-2.516;2023-06-14T01:39:48;16.41;65.63
69776;DHT22;57049;51.450;-2.516;2023-06-14T01:42:16;16.40;65.56
69776;DHT22;57049;51.450;-2.516;2023-06-14T01:44:42;16.31;65.87
69776;DHT22;57049;51.450;-2.516;2023-06-14T01:47:09;16.23;66.00
69776;DHT22;57049;51.450;-2.516;2023-06-14T01:49:36;16.18;65.82
69776;DHT22;57049;51.450;-2.516;2023-06-14T01:52:01;16.12;66.21
69776;DHT22;57049;51.450;-2.516;2023-06-14T01:54:27;16.06;66.39
69776;DHT22;57049;51.450;-2.516;2023-06-14T01:56:52;15.93;66.66
69776;DHT22;57049;51.450;-2.516;2023-06-14T01:59:18;15.90;66.37
69776;DHT22;57049;51.450;-2.516;2023-06-14T02:01:44;15.89;66.12
69776;DHT22;57049;51.450;-2.516;2023-06-14T02:04:11;15.85;66.10
69776;DHT22;57049;51.450;-2.516;2023-06-14T02:06:37;15.82;66.04
69776;DHT22;57049;51.450;-2.516;2023-06-14T02:09:03;15.79;65.70
69776;DHT22;57049;51.450;-2.516;2023-06-14T02:11:29;15.76;65.54
69776;DHT22;57049;51.450;-2.516;2023-06-14T02:13:55;15.75;65.11
69776;DHT22;57049;51.450;-2.516;2023-06-14T02:16:21;15.73;64.72
69776;DHT22;57049;51.450;-2.516;2023-06-14T02:18:47;15.69;65.02
69776;DHT22;57049;51.450;-2.516;2023-06-14T02:21:13;15.66;64.21
69776;DHT22;57049;51.450;-2.516;2023-06-14T02:23:39;15.66;64.21
69776;DHT22;57049;51.450;-2.516;2023-06-14T02:26:05;15.66;63.89
69776;DHT22;57049;51.450;-2.516;2023-06-14T02:28:30;15.62;64.04
69776;DHT22;57049;51.450;-2.516;2023-06-14T02:30:56;15.52;64.31
69776;DHT22;57049;51.450;-2.516;2023-06-14T02:33:21;15.51;64.56
69776;DHT22;57049;51.450;-2.516;2023-06-14T02:35:47;15.48;64.40
69776;DHT22;57049;51.450;-2.516;2023-06-14T02:38:13;15.48;64.78
69776;DHT22;57049;51.450;-2.516;2023-06-14T02:40:38;15.45;64.78
69776;DHT22;57049;51.450;-2.516;2023-06-14T02:43:04;15.49;64.29
69776;DHT22;57049;51.450;-2.516;2023-06-14T02:45:30;15.44;64.44
69776;DHT22;57049;51.450;-2.516;2023-06-14T02:47:55;15.39;64.47
69776;DHT22;57049;51.450;-2.516;2023-06-14T02:50:21;15.34;64.72
69776;DHT22;57049;51.450;-2.516;2023-06-14T02:52:47;15.34;64.86
69776;DHT22;57049;51.450;-2.516;2023-06-14T02:55:12;15.30;65.15
69776;DHT22;57049;51.450;-2.516;2023-06-14T02:57:38;15.25;64.90
69776;DHT22;57049;51.450;-2.516;2023-06-14T03:00:04;15.21;64.96
69776;DHT22;57049;51.450;-2.516;2023-06-14T03:02:30;15.17;65.07
69776;DHT22;57049;51.450;-2.516;2023-06-14T03:04:55;15.12;64.79
69776;DHT22;57049;51.450;-2.516;2023-06-14T03:07:21;15.12;64.76
69776;DHT22;57049;51.450;-2.516;2023-06-14T03:09:48;15.08;64.98
69776;DHT22;57049;51.450;-2.516;2023-06-14T03:12:14;15.07;65.27
69776;DHT22;57049;51.450;-2.516;2023-06-14T03:14:40;15.03;65.18
69776;DHT22;57049;51.450;-2.516;2023-06-14T03:17:07;15.00;65.26
69776;DHT22;57049;51.450;-2.516;2023-06-14T03:19:33;14.95;65.82
69776;DHT22;57049;51.450;-2.516;2023-06-14T03:21:59;14.87;66.38
69776;DHT22;57049;51.450;-2.516;2023-06-14T03:24:25;14.79;67.03
69776;DHT22;57049;51.450;-2.516;2023-06-14T03:26:53;14.79;70.19
69776;DHT22;57049;51.450;-2.516;2023-06-14T03:29:18;14.79;71.81
69776;DHT22;57049;51.450;-2.516;2023-06-14T03:32:01;14.69;72.09
69776;DHT22;57049;51.450;-2.516;2023-06-14T03:34:27;14.55;72.31
69776;DHT22;57049;51.450;-2.516;2023-06-14T03:36:53;14.49;73.52
69776;DHT22;57049;51.450;-2.516;2023-06-14T03:39:19;14.43;73.83
69776;DHT22;57049;51.450;-2.516;2023-06-14T03:41:45;14.39;74.17
69776;DHT22;57049;51.450;-2.516;2023-06-14T03:44:10;14.32;74.84
69776;DHT22;57049;51.450;-2.516;2023-06-14T03:46:36;14.29;75.42
69776;DHT22;57049;51.450;-2.516;2023-06-14T03:49:01;14.16;75.95
69776;DHT22;57049;51.450;-2.516;2023-06-14T03:51:28;14.06;76.15
69776;DHT22;57049;51.450;-2.516;2023-06-14T03:53:53;14.01;77.72
69776;DHT22;57049;51.450;-2.516;2023-06-14T03:56:20;14.01;77.96
69776;DHT22;57049;51.450;-2.516;2023-06-14T03:58:46;14.05;78.19
69776;DHT22;57049;51.450;-2.516;2023-06-14T04:01:12;13.99;79.06
69776;DHT22;57049;51.450;-2.516;2023-06-14T04:03:37;13.98;79.74
69776;DHT22;57049;51.450;-2.516;2023-06-14T04:06:04;13.89;80.41
69776;DHT22;57049;51.450;-2.516;2023-06-14T04:08:30;13.88;80.09
69776;DHT22;57049;51.450;-2.516;2023-06-14T04:10:55;13.86;79.81
69776;DHT22;57049;51.450;-2.516;2023-06-14T04:13:21;13.72;76.35
69776;DHT22;57049;51.450;-2.516;2023-06-14T04:15:46;13.68;74.34
69776;DHT22;57049;51.450;-2.516;2023-06-14T04:18:12;13.64;71.83
69776;DHT22;57049;51.450;-2.516;2023-06-14T04:20:38;13.53;71.26
69776;DHT22;57049;51.450;-2.516;2023-06-14T04:23:16;13.53;71.24
69776;DHT22;57049;51.450;-2.516;2023-06-14T04:25:44;13.43;71.29
69776;DHT22;57049;51.450;-2.516;2023-06-14T04:28:13;13.39;71.64
69776;DHT22;57049;51.450;-2.516;2023-06-14T04:30:42;13.41;71.75
69776;DHT22;57049;51.450;-2.516;2023-06-14T04:33:08;13.33;71.59
69776;DHT22;57049;51.450;-2.516;2023-06-14T04:35:35;13.39;71.44
69776;DHT22;57049;51.450;-2.516;2023-06-14T04:38:03;13.31;71.76
69776;DHT22;57049;51.450;-2.516;2023-06-14T04:40:35;13.19;71.87
69776;DHT22;57049;51.450;-2.516;2023-06-14T04:43:01;13.23;71.96
69776;DHT22;57049;51.450;-2.516;2023-06-14T04:45:31;13.27;72.27
69776;DHT22;57049;51.450;-2.516;2023-06-14T04:47:59;13.34;72.66
69776;DHT22;57049;51.450;-2.516;2023-06-14T04:50:25;13.37;73.11
69776;DHT22;57049;51.450;-2.516;2023-06-14T04:52:51;13.34;73.66
69776;DHT22;57049;51.450;-2.516;2023-06-14T04:55:17;13.33;74.20
69776;DHT22;57049;51.450;-2.516;2023-06-14T04:57:44;13.23;74.95
69776;DHT22;57049;51.450;-2.516;2023-06-14T05:00:10;13.31;74.84
69776;DHT22;57049;51.450;-2.516;2023-06-14T05:02:37;13.19;75.71
69776;DHT22;57049;51.450;-2.516;2023-06-14T05:05:03;13.21;75.78
69776;DHT22;57049;51.450;-2.516;2023-06-14T05:07:34;13.33;75.40
69776;DHT22;57049;51.450;-2.516;2023-06-14T05:09:59;13.44;75.27
69776;DHT22;57049;51.450;-2.516;2023-06-14T05:12:25;13.41;75.12
69776;DHT22;57049;51.450;-2.516;2023-06-14T05:14:51;13.43;74.92
69776;DHT22;57049;51.450;-2.516;2023-06-14T05:17:17;13.50;74.77
69776;DHT22;57049;51.450;-2.516;2023-06-14T05:19:43;13.53;75.07
69776;DHT22;57049;51.450;-2.516;2023-06-14T05:22:08;13.34;75.56
69776;DHT22;57049;51.450;-2.516;2023-06-14T05:24:34;13.46;75.51
69776;DHT22;57049;51.450;-2.516;2023-06-14T05:27:00;13.40;75.73
69776;DHT22;57049;51.450;-2.516;2023-06-14T05:29:25;13.36;76.12
69776;DHT22;57049;51.450;-2.516;2023-06-14T05:31:51;13.48;76.17
69776;DHT22;57049;51.450;-2.516;2023-06-14T05:34:16;13.47;76.18
69776;DHT22;57049;51.450;-2.516;2023-06-14T05:36:42;13.70;75.67
69776;DHT22;57049;51.450;-2.516;2023-06-14T05:39:08;13.95;74.67
69776;DHT22;57049;51.450;-2.516;2023-06-14T05:41:33;13.81;74.85
69776;DHT22;57049;51.450;-2.516;2023-06-14T05:43:59;14.69;72.50
69776;DHT22;57049;51.450;-2.516;2023-06-14T05:46:25;15.79;69.44
69776;DHT22;57049;51.450;-2.516;2023-06-14T05:48:52;16.64;66.76
69776;DHT22;57049;51.450;-2.516;2023-06-14T05:51:18;17.19;64.37
69776;DHT22;57049;51.450;-2.516;2023-06-14T05:53:46;17.67;63.71
69776;DHT22;57049;51.450;-2.516;2023-06-14T05:56:13;18.47;61.01
69776;DHT22;57049;51.450;-2.516;2023-06-14T05:58:39;19.43;59.20
69776;DHT22;57049;51.450;-2.516;2023-06-14T06:01:04;19.09;57.79
69776;DHT22;57049;51.450;-2.516;2023-06-14T06:03:30;19.50;56.75
69776;DHT22;57049;51.450;-2.516;2023-06-14T06:05:55;20.48;56.29
69776;DHT22;57049;51.450;-2.516;2023-06-14T06:08:21;19.92;55.22
69776;DHT22;57049;51.450;-2.516;2023-06-14T06:10:46;19.31;56.26
69776;DHT22;57049;51.450;-2.516;2023-06-14T06:13:12;18.89;57.08
69776;DHT22;57049;51.450;-2.516;2023-06-14T06:15:37;20.04;56.34
69776;DHT22;57049;51.450;-2.516;2023-06-14T06:18:03;20.26;54.40
69776;DHT22;57049;51.450;-2.516;2023-06-14T06:20:29;20.25;54.00
69776;DHT22;57049;51.450;-2.516;2023-06-14T06:22:56;20.73;53.44
69776;DHT22;57049;51.450;-2.516;2023-06-14T06:25:22;20.52;53.05
69776;DHT22;57049;51.450;-2.516;2023-06-14T06:27:48;20.12;55.70
69776;DHT22;57049;51.450;-2.516;2023-06-14T06:30:14;20.42;54.17
69776;DHT22;57049;51.450;-2.516;2023-06-14T06:32:39;19.79;55.52
69776;DHT22;57049;51.450;-2.516;2023-06-14T06:35:05;20.43;54.70
69776;DHT22;57049;51.450;-2.516;2023-06-14T06:37:32;19.98;54.69
69776;DHT22;57049;51.450;-2.516;2023-06-14T06:39:57;19.03;57.72
69776;DHT22;57049;51.450;-2.516;2023-06-14T06:42:23;18.91;58.85
69776;DHT22;57049;51.450;-2.516;2023-06-14T06:44:48;19.27;58.63
69776;DHT22;57049;51.450;-2.516;2023-06-14T06:47:14;19.17;58.32
69776;DHT22;57049;51.450;-2.516;2023-06-14T06:49:39;20.18;56.56
69776;DHT22;57049;51.450;-2.516;2023-06-14T06:52:06;20.49;56.08
69776;DHT22;57049;51.450;-2.516;2023-06-14T06:54:33;21.26;53.41
69776;DHT22;57049;51.450;-2.516;2023-06-14T06:56:58;21.93;53.31
69776;DHT22;57049;51.450;-2.516;2023-06-14T06:59:24;20.19;55.57
69776;DHT22;57049;51.450;-2.516;2023-06-14T07:01:50;20.11;56.79
69776;DHT22;57049;51.450;-2.516;2023-06-14T07:04:15;18.91;59.42
69776;DHT22;57049;51.450;-2.516;2023-06-14T07:06:42;18.81;60.43
69776;DHT22;57049;51.450;-2.516;2023-06-14T07:09:08;18.28;61.75
69776;DHT22;57049;51.450;-2.516;2023-06-14T07:11:40;19.03;59.07
69776;DHT22;57049;51.450;-2.516;2023-06-14T07:14:06;21.15;54.39
69776;DHT22;57049;51.450;-2.516;2023-06-14T07:16:32;21.24;53.48
69776;DHT22;57049;51.450;-2.516;2023-06-14T07:18:58;20.16;55.11
69776;DHT22;57049;51.450;-2.516;2023-06-14T07:21:23;19.97;56.60
69776;DHT22;57049;51.450;-2.516;2023-06-14T07:23:51;21.32;54.26
69776;DHT22;57049;51.450;-2.516;2023-06-14T07:26:16;21.47;54.20
69776;DHT22;57049;51.450;-2.516;2023-06-14T07:28:42;23.49;49.87
69776;DHT22;57049;51.450;-2.516;2023-06-14T07:31:10;22.32;51.00
69776;DHT22;57049;51.450;-2.516;2023-06-14T07:33:36;21.57;53.13
69776;DHT22;57049;51.450;-2.516;2023-06-14T07:36:02;20.40;55.09
69776;DHT22;57049;51.450;-2.516;2023-06-14T07:38:28;20.26;56.68
69776;DHT22;57049;51.450;-2.516;2023-06-14T07:40:53;20.55;56.57
69776;DHT22;57049;51.450;-2.516;2023-06-14T07:43:19;22.02;53.09
69776;DHT22;57049;51.450;-2.516;2023-06-14T07:45:44;21.86;54.18
69776;DHT22;57049;51.450;-2.516;2023-06-14T07:48:10;22.13;52.21
69776;DHT22;57049;51.450;-2.516;2023-06-14T07:50:36;23.38;51.26
69776;DHT22;57049;51.450;-2.516;2023-06-14T07:53:01;21.66;52.62
69776;DHT22;57049;51.450;-2.516;2023-06-14T07:55:27;22.01;52.41
69776;DHT22;57049;51.450;-2.516;2023-06-14T07:57:53;22.50;51.43
69776;DHT22;57049;51.450;-2.516;2023-06-14T08:00:20;21.71;53.50
69776;DHT22;57049;51.450;-2.516;2023-06-14T08:02:46;22.68;51.08
69776;DHT22;57049;51.450;-2.516;2023-06-14T08:05:11;22.20;52.21
69776;DHT22;57049;51.450;-2.516;2023-06-14T08:07:38;21.23;54.53
69776;DHT22;57049;51.450;-2.516;2023-06-14T08:10:05;20.57;55.72
69776;DHT22;57049;51.450;-2.516;2023-06-14T08:12:32;22.05;52.62
69776;DHT22;57049;51.450;-2.516;2023-06-14T08:14:57;22.20;53.07
69776;DHT22;57049;51.450;-2.516;2023-06-14T08:17:23;23.86;49.16
69776;DHT22;57049;51.450;-2.516;2023-06-14T08:19:48;23.58;48.95
69776;DHT22;57049;51.450;-2.516;2023-06-14T08:22:14;23.73;49.38
69776;DHT22;57049;51.450;-2.516;2023-06-14T08:24:39;23.26;50.14
69776;DHT22;57049;51.450;-2.516;2023-06-14T08:27:06;22.01;51.71
69776;DHT22;57049;51.450;-2.516;2023-06-14T08:29:32;22.37;52.07
69776;DHT22;57049;51.450;-2.516;2023-06-14T08:31:57;22.17;51.90
69776;DHT22;57049;51.450;-2.516;2023-06-14T08:34:23;21.42;54.08
69776;DHT22;57049;51.450;-2.516;2023-06-14T08:36:50;22.14;52.99
69776;DHT22;57049;51.450;-2.516;2023-06-14T08:39:16;21.88;52.90
69776;DHT22;57049;51.450;-2.516;2023-06-14T08:41:43;21.99;52.46
69776;DHT22;57049;51.450;-2.516;2023-06-14T08:44:11;21.23;55.00
69776;DHT22;57049;51.450;-2.516;2023-06-14T08:46:37;23.22;51.82
69776;DHT22;57049;51.450;-2.516;2023-06-14T08:49:03;22.93;51.17
69776;DHT22;57049;51.450;-2.516;2023-06-14T08:51:31;22.43;51.04
69776;DHT22;57049;51.450;-2.516;2023-06-14T08:54:02;22.44;53.03
69776;DHT22;57049;51.450;-2.516;2023-06-14T08:56:29;21.37;53.17
69776;DHT22;57049;51.450;-2.516;2023-06-14T08:58:59;22.59;51.32
69776;DHT22;57049;51.450;-2.516;2023-06-14T09:01:30;23.70;49.59
69776;DHT22;57049;51.450;-2.516;2023-06-14T09:03:56;23.70;48.37
69776;DHT22;57049;51.450;-2.516;2023-06-14T09:06:23;23.32;49.49
69776;DHT22;57049;51.450;-2.516;2023-06-14T09:08:50;22.12;51.22
69776;DHT22;57049;51.450;-2.516;2023-06-14T09:11:17;23.86;49.64
69776;DHT22;57049;51.450;-2.516;2023-06-14T09:13:45;23.72;48.62
69776;DHT22;57049;51.450;-2.516;2023-06-14T09:16:11;23.48;48.44
69776;DHT22;57049;51.450;-2.516;2023-06-14T09:18:43;24.91;45.82
69776;DHT22;57049;51.450;-2.516;2023-06-14T09:21:14;23.76;49.61
69776;DHT22;57049;51.450;-2.516;2023-06-14T09:23:42;23.86;48.56
69776;DHT22;57049;51.450;-2.516;2023-06-14T09:26:13;22.56;52.07
69776;DHT22;57049;51.450;-2.516;2023-06-14T09:28:45;24.07;50.44
69776;DHT22;57049;51.450;-2.516;2023-06-14T09:31:14;23.67;48.57
69776;DHT22;57049;51.450;-2.516;2023-06-14T09:33:48;23.82;49.16
69776;DHT22;57049;51.450;-2.516;2023-06-14T09:36:18;23.22;49.78
69776;DHT22;57049;51.450;-2.516;2023-06-14T09:38:56;23.19;50.19
69776;DHT22;57049;51.450;-2.516;2023-06-14T09:41:32;23.31;51.33
69776;DHT22;57049;51.450;-2.516;2023-06-14T09:44:03;23.92;49.87
69776;DHT22;57049;51.450;-2.516;2023-06-14T09:46:29;24.65;47.31
69776;DHT22;57049;51.450;-2.516;2023-06-14T09:48:59;25.46;46.16
69776;DHT22;57049;51.450;-2.516;2023-06-14T09:51:25;26.44;43.97
69776;DHT22;57049;51.450;-2.516;2023-06-14T09:53:52;26.51;43.51
69776;DHT22;57049;51.450;-2.516;2023-06-14T09:56:41;25.30;44.67
69776;DHT22;57049;51.450;-2.516;2023-06-14T09:59:09;23.61;48.62
69776;DHT22;57049;51.450;-2.516;2023-06-14T10:01:37;23.61;46.97
69776;DHT22;57049;51.450;-2.516;2023-06-14T10:04:05;24.38;45.10
69776;DHT22;57049;51.450;-2.516;2023-06-14T10:06:32;23.83;47.32
69776;DHT22;57049;51.450;-2.516;2023-06-14T10:09:03;23.79;47.81
69776;DHT22;57049;51.450;-2.516;2023-06-14T10:11:29;24.13;49.78
69776;DHT22;57049;51.450;-2.516;2023-06-14T10:13:56;22.67;50.41
69776;DHT22;57049;51.450;-2.516;2023-06-14T10:22:02;22.75;49.50
69776;DHT22;57049;51.450;-2.516;2023-06-14T10:24:39;22.93;49.00
69776;DHT22;57049;51.450;-2.516;2023-06-14T10:27:06;23.37;48.46
69776;DHT22;57049;51.450;-2.516;2023-06-14T10:32:27;23.42;46.41
69776;DHT22;57049;51.450;-2.516;2023-06-14T10:35:05;22.86;49.53
69776;DHT22;57049;51.450;-2.516;2023-06-14T10:37:34;23.11;49.61
69776;DHT22;57049;51.450;-2.516;2023-06-14T10:40:00;23.05;48.76
69776;DHT22;57049;51.450;-2.516;2023-06-14T10:42:32;23.03;48.17
69776;DHT22;57049;51.450;-2.516;2023-06-14T10:44:58;23.25;48.12
69776;DHT22;57049;51.450;-2.516;2023-06-14T10:52:22;23.01;48.38
69776;DHT22;57049;51.450;-2.516;2023-06-14T10:57:38;23.35;47.66
69776;DHT22;57049;51.450;-2.516;2023-06-14T11:00:07;22.57;50.53
69776;DHT22;57049;51.450;-2.516;2023-06-14T11:05:49;22.68;51.32
69776;DHT22;57049;51.450;-2.516;2023-06-14T11:10:50;23.16;50.39
69776;DHT22;57049;51.450;-2.516;2023-06-14T11:13:16;22.80;49.75
69776;DHT22;57049;51.450;-2.516;2023-06-14T11:15:47;23.14;49.98
69776;DHT22;57049;51.450;-2.516;2023-06-14T11:18:13;23.37;49.44
69776;DHT22;57049;51.450;-2.516;2023-06-14T11:20:42;22.93;49.96
69776;DHT22;57049;51.450;-2.516;2023-06-14T11:23:08;22.87;50.49
69776;DHT22;57049;51.450;-2.516;2023-06-14T11:25:33;23.58;50.09
69776;DHT22;57049;51.450;-2.516;2023-06-14T11:27:59;23.66;48.36
69776;DHT22;57049;51.450;-2.516;2023-06-14T11:30:24;23.58;49.14
69776;DHT22;57049;51.450;-2.516;2023-06-14T11:32:54;23.32;50.25
69776;DHT22;57049;51.450;-2.516;2023-06-14T11:35:23;23.32;49.74
69776;DHT22;57049;51.450;-2.516;2023-06-14T11:37:55;23.05;50.11
69776;DHT22;57049;51.450;-2.516;2023-06-14T11:40:26;23.66;50.48
69776;DHT22;57049;51.450;-2.516;2023-06-14T11:43:02;23.85;49.65
69776;DHT22;57049;51.450;-2.516;2023-06-14T11:45:29;23.95;50.15
69776;DHT22;57049;51.450;-2.516;2023-06-14T11:47:56;24.30;48.55
69776;DHT22;57049;51.450;-2.516;2023-06-14T11:50:22;24.10;49.81
69776;DHT22;57049;51.450;-2.516;2023-06-14T11:52:54;24.07;49.41
69776;DHT22;57049;51.450;-2.516;2023-06-14T11:55:21;24.34;48.75
69776;DHT22;57049;51.450;-2.516;2023-06-14T11:57:47;24.43;50.28
69776;DHT22;57049;51.450;-2.516;2023-06-14T12:00:13;24.50;48.37
69776;DHT22;57049;51.450;-2.516;2023-06-14T12:02:41;24.33;48.85
69776;DHT22;57049;51.450;-2.516;2023-06-14T12:05:07;24.28;49.66
69776;DHT22;57049;51.450;-2.516;2023-06-14T12:07:38;23.86;50.41
69776;DHT22;57049;51.450;-2.516;2023-06-14T12:10:09;24.24;49.90
69776;DHT22;57049;51.450;-2.516;2023-06-14T12:12:39;24.46;49.38
69776;DHT22;57049;51.450;-2.516;2023-06-14T12:15:06;24.68;49.13
69776;DHT22;57049;51.450;-2.516;2023-06-14T12:17:33;24.99;48.06
69776;DHT22;57049;51.450;-2.516;2023-06-14T12:20:05;24.94;47.56
69776;DHT22;57049;51.450;-2.516;2023-06-14T12:22:33;24.94;48.28
69776;DHT22;57049;51.450;-2.516;2023-06-14T12:24:59;24.58;48.09
69776;DHT22;57049;51.450;-2.516;2023-06-14T12:27:25;24.64;49.03
69776;DHT22;57049;51.450;-2.516;2023-06-14T12:30:04;24.67;49.28
69776;DHT22;57049;51.450;-2.516;2023-06-14T12:32:30;24.89;48.11
69776;DHT22;57049;51.450;-2.516;2023-06-14T12:34:56;24.98;47.32
69776;DHT22;57049;51.450;-2.516;2023-06-14T12:37:22;24.87;47.81
69776;DHT22;57049;51.450;-2.516;2023-06-14T12:39:47;24.92;47.47
69776;DHT22;57049;51.450;-2.516;2023-06-14T12:42:13;25.15;47.75
69776;DHT22;57049;51.450;-2.516;2023-06-14T12:44:40;25.14;47.54
69776;DHT22;57049;51.450;-2.516;2023-06-14T12:47:07;25.32;46.96
69776;DHT22;57049;51.450;-2.516;2023-06-14T12:49:33;25.38;46.04
69776;DHT22;57049;51.450;-2.516;2023-06-14T12:51:58;25.56;46.54
69776;DHT22;57049;51.450;-2.516;2023-06-14T12:54:24;25.65;46.42
69776;DHT22;57049;51.450;-2.516;2023-06-14T12:56:51;25.25;45.66
69776;DHT22;57049;51.450;-2.516;2023-06-14T12:59:18;25.49;46.77
69776;DHT22;57049;51.450;-2.516;2023-06-14T13:01:46;25.66;45.77
69776;DHT22;57049;51.450;-2.516;2023-06-14T13:04:15;25.77;46.19
69776;DHT22;57049;51.450;-2.516;2023-06-14T13:06:41;26.08;45.44
69776;DHT22;57049;51.450;-2.516;2023-06-14T13:09:07;25.93;44.37
69776;DHT22;57049;51.450;-2.516;2023-06-14T13:11:33;26.55;44.61
69776;DHT22;57049;51.450;-2.516;2023-06-14T13:13:58;26.59;43.71
69776;DHT22;57049;51.450;-2.516;2023-06-14T13:16:24;26.48;44.42
69776;DHT22;57049;51.450;-2.516;2023-06-14T13:18:50;26.58;44.91
69776;DHT22;57049;51.450;-2.516;2023-06-14T13:21:15;26.38;43.53
69776;DHT22;57049;51.450;-2.516;2023-06-14T13:23:40;26.05;43.37
69776;DHT22;57049;51.450;-2.516;2023-06-14T13:26:06;26.21;43.99
69776;DHT22;57049;51.450;-2.516;2023-06-14T13:28:31;26.32;43.33
69776;DHT22;57049;51.450;-2.516;2023-06-14T13:30:57;26.27;42.52
69776;DHT22;57049;51.450;-2.516;2023-06-14T13:33:23;26.69;43.62
69776;DHT22;57049;51.450;-2.516;2023-06-14T13:35:49;26.56;44.14
69776;DHT22;57049;51.450;-2.516;2023-06-14T13:38:18;26.51;44.11
69776;DHT22;57049;51.450;-2.516;2023-06-14T13:40:43;26.41;43.79
69776;DHT22;57049;51.450;-2.516;2023-06-14T13:43:08;26.45;43.78
69776;DHT22;57049;51.450;-2.516;2023-06-14T13:45:35;26.45;44.29
69776;DHT22;57049;51.450;-2.516;2023-06-14T13:48:01;26.75;43.79
69776;DHT22;57049;51.450;-2.516;2023-06-14T13:50:26;26.82;40.37
69776;DHT22;57049;51.450;-2.516;2023-06-14T13:52:52;27.46;40.11
69776;DHT22;57049;51.450;-2.516;2023-06-14T13:55:17;27.03;41.67
69776;DHT22;57049;51.450;-2.516;2023-06-14T13:57:43;27.07;42.16
69776;DHT22;57049;51.450;-2.516;2023-06-14T14:00:09;27.47;41.48
69776;DHT22;57049;51.450;-2.516;2023-06-14T14:02:34;27.85;41.42
69776;DHT22;57049;51.450;-2.516;2023-06-14T14:05:00;28.14;39.80
69776;DHT22;57049;51.450;-2.516;2023-06-14T14:07:25;27.70;40.88
69776;DHT22;57049;51.450;-2.516;2023-06-14T14:09:51;28.18;41.25
69776;DHT22;57049;51.450;-2.516;2023-06-14T14:12:16;27.93;41.21
69776;DHT22;57049;51.450;-2.516;2023-06-14T14:14:42;27.51;42.16
69776;DHT22;57049;51.450;-2.516;2023-06-14T14:17:07;27.95;41.11
69776;DHT22;57049;51.450;-2.516;2023-06-14T14:19:33;28.12;40.76
69776;DHT22;57049;51.450;-2.516;2023-06-14T14:21:58;28.06;41.45
69776;DHT22;57049;51.450;-2.516;2023-06-14T14:24:24;27.87;41.17
69776;DHT22;57049;51.450;-2.516;2023-06-14T14:26:50;27.67;41.84
69776;DHT22;57049;51.450;-2.516;2023-06-14T14:29:19;28.41;41.27
69776;DHT22;57049;51.450;-2.516;2023-06-14T14:31:44;28.26;40.38
69776;DHT22;57049;51.450;-2.516;2023-06-14T14:34:10;28.29;40.48
69776;DHT22;57049;51.450;-2.516;2023-06-14T14:36:35;28.26;40.70
69776;DHT22;57049;51.450;-2.516;2023-06-14T14:39:03;28.35;41.20
69776;DHT22;57049;51.450;-2.516;2023-06-14T14:41:29;28.44;40.36
69776;DHT22;57049;51.450;-2.516;2023-06-14T14:43:55;28.46;40.49
69776;DHT22;57049;51.450;-2.516;2023-06-14T14:46:20;28.16;41.11
69776;DHT22;57049;51.450;-2.516;2023-06-14T14:48:48;28.39;41.45
69776;DHT22;57049;51.450;-2.516;2023-06-14T14:51:14;27.97;41.17
69776;DHT22;57049;51.450;-2.516;2023-06-14T14:53:40;28.46;41.85
69776;DHT22;57049;51.450;-2.516;2023-06-14T14:56:06;28.35;41.04
69776;DHT22;57049;51.450;-2.516;2023-06-14T14:58:31;28.09;42.14
69776;DHT22;57049;51.450;-2.516;2023-06-14T15:00:57;27.64;42.12
69776;DHT22;57049;51.450;-2.516;2023-06-14T15:03:23;28.14;41.71
69776;DHT22;57049;51.450;-2.516;2023-06-14T15:05:48;28.29;41.52
69776;DHT22;57049;51.450;-2.516;2023-06-14T15:08:14;28.05;42.79
69776;DHT22;57049;51.450;-2.516;2023-06-14T15:10:39;27.73;42.84
69776;DHT22;57049;51.450;-2.516;2023-06-14T15:13:08;27.60;42.69
69776;DHT22;57049;51.450;-2.516;2023-06-14T15:15:34;28.39;42.48
69776;DHT22;57049;51.450;-2.516;2023-06-14T15:18:00;28.92;41.73
69776;DHT22;57049;51.450;-2.516;2023-06-14T15:20:26;28.73;40.15
69776;DHT22;57049;51.450;-2.516;2023-06-14T15:22:52;28.35;41.06
69776;DHT22;57049;51.450;-2.516;2023-06-14T15:25:18;28.36;40.56
69776;DHT22;57049;51.450;-2.516;2023-06-14T15:27:44;29.13;40.29
69776;DHT22;57049;51.450;-2.516;2023-06-14T15:30:10;29.68;40.66
69776;DHT22;57049;51.450;-2.516;2023-06-14T15:32:36;29.37;38.86
69776;DHT22;57049;51.450;-2.516;2023-06-14T15:35:02;29.21;38.94
69776;DHT22;57049;51.450;-2.516;2023-06-14T15:37:27;29.74;39.54